createdAt,value
2023-02-22T00:01:07.401Z,14.88
2023-02-22T00:03:38.972Z,14.82
2023-02-22T00:06:07.842Z,16.55
2023-02-22T00:08:38.065Z,14.57
2023-02-22T00:11:09.225Z,16.52
2023-02-22T00:13:38.345Z,16.70
2023-02-22T00:16:08.338Z,16.23
2023-02-22T00:18:37.798Z,16.17
2023-02-22T00:21:10.572Z,16.25
2023-02-22T00:23:43.299Z,15.93
2023-02-22T00:26:11.372Z,16.75
2023-02-22T00:28:39.811Z,15.40
2023-02-22T00:31:09.484Z,14.82
2023-02-22T00:33:40.917Z,16.77
2023-02-22T00:36:11.205Z,15.95
2023-02-22T00:38:39.943Z,16.58
2023-02-22T00:41:08.373Z,15.82
2023-02-22T00:43:36.447Z,15.73
2023-02-22T00:46:05.683Z,17.55
2023-02-22T00:48:33.738Z,17.52
2023-02-22T00:51:03.137Z,16.80
2023-02-22T00:53:31.171Z,16.13
2023-02-22T00:55:59.484Z,14.02
2023-02-22T00:58:27.588Z,13.95
2023-02-22T01:00:55.813Z,16.30
2023-02-22T01:03:23.873Z,16.08
2023-02-22T01:05:52.036Z,15.75
2023-02-22T01:08:21.365Z,15.48
2023-02-22T01:10:49.774Z,17.67
2023-02-22T01:13:19.872Z,20.40
2023-02-22T01:15:47.965Z,17.42
2023-02-22T01:18:17.330Z,17.60
2023-02-22T01:20:48.016Z,18.40
2023-02-22T01:23:17.351Z,17.40
2023-02-22T01:25:46.984Z,17.83
2023-02-22T01:28:15.263Z,17.52
2023-02-22T01:30:43.513Z,16.33
2023-02-22T01:33:13.732Z,15.75
2023-02-22T01:35:43.522Z,16.85
2023-02-22T01:38:11.908Z,17.13
2023-02-22T01:40:43.120Z,16.45
2023-02-22T01:43:24.626Z,16.33
2023-02-22T01:46:01.679Z,19.55
2023-02-22T01:51:16.441Z,17.67
2023-02-22T01:53:52.052Z,17.88
2023-02-22T01:56:23.196Z,19.33
2023-02-22T01:58:59.971Z,20.50
2023-02-22T02:01:30.701Z,17.85
2023-02-22T02:04:03.665Z,18.58
2023-02-22T02:06:35.839Z,17.92
2023-02-22T02:09:13.291Z,18.88
2023-02-22T02:11:42.934Z,16.63
2023-02-22T02:14:14.530Z,19.95
2023-02-22T02:16:50.165Z,17.95
2023-02-22T02:19:29.477Z,17.17
2023-02-22T02:22:29.619Z,18.75
2023-02-22T02:25:39.024Z,21.02
2023-02-22T02:28:59.927Z,19.98
2023-02-22T02:32:21.107Z,16.80
2023-02-22T02:35:00.029Z,21.35
2023-02-22T02:37:41.925Z,19.92
2023-02-22T02:40:21.416Z,20.27
2023-02-22T02:43:01.724Z,21.13
2023-02-22T02:45:40.582Z,19.48
2023-02-22T02:48:16.409Z,21.25
2023-02-22T02:50:48.791Z,22.10
2023-02-22T02:53:23.356Z,17.55
2023-02-22T02:55:51.679Z,16.73
2023-02-22T02:58:23.841Z,16.88
2023-02-22T03:00:55.577Z,17.80
2023-02-22T03:04:00.935Z,17.63
2023-02-22T03:07:16.516Z,16.67
2023-02-22T03:10:03.940Z,18.70
2023-02-22T03:12:48.892Z,18.90
2023-02-22T03:15:36.564Z,17.58
2023-02-22T03:20:51.339Z,14.82
2023-02-22T03:23:28.146Z,19.17
2023-02-22T03:26:02.570Z,16.08
2023-02-22T03:28:34.417Z,17.20
2023-02-22T03:31:10.437Z,18.35
2023-02-22T03:33:46.616Z,19.13
2023-02-22T03:36:24.912Z,17.90
2023-02-22T03:38:56.498Z,18.33
2023-02-22T03:41:27.989Z,17.65
2023-02-22T03:44:04.396Z,18.52
2023-02-22T03:46:34.050Z,17.52
2023-02-22T03:49:12.168Z,18.90
2023-02-22T03:51:42.551Z,20.38
2023-02-22T03:54:16.366Z,19.98
2023-02-22T03:56:54.151Z,18.50
2023-02-22T03:59:25.399Z,18.38
2023-02-22T04:01:54.126Z,16.42
2023-02-22T04:04:23.971Z,18.73
2023-02-22T04:06:54.331Z,18.98
2023-02-22T04:09:22.810Z,17.20
2023-02-22T04:11:51.065Z,18.38
2023-02-22T04:14:19.379Z,19.08
2023-02-22T04:16:47.567Z,17.65
2023-02-22T04:19:15.711Z,19.33
2023-02-22T04:21:44.017Z,17.48
2023-02-22T04:24:13.937Z,18.38
2023-02-22T04:26:42.437Z,19.40
2023-02-22T04:29:10.801Z,20.00
2023-02-22T04:31:39.007Z,17.73
2023-02-22T04:34:07.453Z,19.13
2023-02-22T04:36:35.765Z,17.63
2023-02-22T04:39:04.278Z,16.10
2023-02-22T04:41:34.744Z,17.58
2023-02-22T04:44:03.038Z,18.25
2023-02-22T04:46:31.597Z,16.52
2023-02-22T04:49:00.009Z,16.88
2023-02-22T04:51:28.250Z,20.42
2023-02-22T04:53:56.463Z,19.13
2023-02-22T04:56:25.124Z,17.10
2023-02-22T04:58:54.853Z,18.73
2023-02-22T05:01:23.581Z,20.80
2023-02-22T05:03:51.912Z,18.90
2023-02-22T05:06:20.402Z,18.55
2023-02-22T05:08:48.727Z,21.73
2023-02-22T05:11:17.128Z,19.85
2023-02-22T05:13:45.515Z,20.17
2023-02-22T05:16:15.692Z,20.13
2023-02-22T05:18:43.982Z,20.45
2023-02-22T05:21:13.685Z,19.73
2023-02-22T05:23:42.773Z,20.05
2023-02-22T05:26:11.795Z,37.00
2023-02-22T05:28:40.346Z,23.08
2023-02-22T05:31:08.732Z,20.90
2023-02-22T05:33:39.733Z,19.88
2023-02-22T05:36:09.750Z,20.45
2023-02-22T05:38:43.535Z,19.95
2023-02-22T05:41:12.671Z,19.67
2023-02-22T05:43:42.000Z,17.13
2023-02-22T05:46:10.409Z,23.58
2023-02-22T05:48:40.510Z,20.15
2023-02-22T05:51:10.765Z,19.25
2023-02-22T05:53:39.017Z,19.30
2023-02-22T05:56:08.049Z,21.42
2023-02-22T05:58:36.304Z,21.23
2023-02-22T06:01:04.519Z,20.92
2023-02-22T06:03:32.696Z,20.15
2023-02-22T06:06:02.574Z,20.58
2023-02-22T06:08:30.698Z,23.77
2023-02-22T06:10:58.870Z,22.67
2023-02-22T06:13:27.136Z,25.90
2023-02-22T06:15:55.423Z,21.77
2023-02-22T06:18:26.693Z,20.58
2023-02-22T06:20:54.907Z,23.90
2023-02-22T06:23:24.692Z,20.73
2023-02-22T06:25:53.009Z,21.75
2023-02-22T06:28:21.405Z,22.85
2023-02-22T06:30:49.638Z,23.13
2023-02-22T06:33:17.904Z,21.90
2023-02-22T06:35:47.046Z,21.38
2023-02-22T06:38:24.898Z,18.60
2023-02-22T06:40:55.282Z,19.45
2023-02-22T06:43:24.322Z,22.25
2023-02-22T06:45:52.839Z,20.45
2023-02-22T06:48:21.497Z,22.55
2023-02-22T06:50:49.682Z,23.33
2023-02-22T06:53:17.871Z,19.38
2023-02-22T06:55:47.645Z,21.25
2023-02-22T06:58:16.066Z,23.23
2023-02-22T07:00:44.276Z,23.58
2023-02-22T07:03:14.290Z,22.83
2023-02-22T07:05:42.492Z,22.15
2023-02-22T07:08:11.898Z,27.73
2023-02-22T07:10:41.450Z,23.40
2023-02-22T07:13:11.116Z,58.58
2023-02-22T07:15:40.065Z,31.27
2023-02-22T07:18:08.812Z,32.67
2023-02-22T07:20:37.144Z,26.45
2023-02-22T07:23:05.820Z,26.95
2023-02-22T07:25:34.110Z,28.77
2023-02-22T07:28:02.280Z,26.80
2023-02-22T07:30:34.437Z,27.95
2023-02-22T07:33:06.221Z,25.92
2023-02-22T07:35:37.618Z,24.45
2023-02-22T07:38:08.383Z,26.58
2023-02-22T07:40:38.691Z,23.33
2023-02-22T07:43:16.491Z,23.25
2023-02-22T07:45:47.850Z,24.40
2023-02-22T07:48:18.724Z,23.50
2023-02-22T07:50:47.534Z,24.80
2023-02-22T07:53:19.708Z,22.02
2023-02-22T07:55:50.894Z,22.85
2023-02-22T07:58:23.468Z,22.27
2023-02-22T08:00:54.108Z,25.23
2023-02-22T08:03:25.956Z,23.05
2023-02-22T08:05:57.879Z,23.77
2023-02-22T08:08:26.281Z,22.77
2023-02-22T08:10:54.709Z,21.85
2023-02-22T08:13:24.152Z,21.27
2023-02-22T08:15:55.302Z,19.85
2023-02-22T08:18:24.955Z,18.40
2023-02-22T08:20:54.829Z,16.23
2023-02-22T08:23:27.001Z,13.30
2023-02-22T08:25:56.729Z,10.63
2023-02-22T08:28:26.251Z,10.60
2023-02-22T08:30:56.358Z,9.00
2023-02-22T08:33:25.068Z,8.98
2023-02-22T08:35:53.541Z,8.23
2023-02-22T08:38:25.272Z,9.52
2023-02-22T08:40:53.766Z,8.23
2023-02-22T08:43:23.519Z,7.55
2023-02-22T08:45:52.911Z,7.13
2023-02-22T08:48:23.313Z,8.60
2023-02-22T08:50:51.846Z,8.43
2023-02-22T08:53:20.428Z,7.53
2023-02-22T08:55:49.794Z,6.43
2023-02-22T08:58:18.126Z,8.85
2023-02-22T09:00:46.607Z,6.75
2023-02-22T09:14:54.494Z,7.35
2023-02-22T09:17:27.929Z,8.43
2023-02-22T09:19:56.594Z,10.05
2023-02-22T09:22:25.075Z,9.93
2023-02-22T09:24:55.791Z,9.18
2023-02-22T09:27:24.078Z,8.30
2023-02-22T09:29:53.634Z,8.88
2023-02-22T09:32:21.857Z,8.27
2023-02-22T09:34:52.205Z,10.13
2023-02-22T09:37:20.482Z,8.40
2023-02-22T09:39:48.590Z,8.73
2023-02-22T09:42:28.520Z,8.68
2023-02-22T09:45:12.772Z,8.25
2023-02-22T09:47:46.635Z,8.45
2023-02-22T09:50:19.692Z,10.35
2023-02-22T09:52:57.657Z,9.55
2023-02-22T09:55:37.602Z,9.60
2023-02-22T09:58:26.130Z,9.35
2023-02-22T10:01:05.087Z,8.75
2023-02-22T10:03:50.436Z,8.95
2023-02-22T10:06:24.160Z,9.00
2023-02-22T10:08:58.152Z,8.60
2023-02-22T10:11:44.868Z,7.60
2023-02-22T10:14:49.800Z,9.13
2023-02-22T10:17:35.297Z,8.55
2023-02-22T10:20:22.844Z,9.00
2023-02-22T10:23:12.129Z,8.15
2023-02-22T10:25:43.494Z,9.45
2023-02-22T10:28:20.515Z,8.95
2023-02-22T10:30:55.153Z,8.40
2023-02-22T10:33:31.475Z,8.60
2023-02-22T10:35:59.884Z,9.00
2023-02-22T10:38:31.232Z,8.02
2023-02-22T10:41:14.174Z,7.40
2023-02-22T10:43:44.746Z,9.40
2023-02-22T10:46:18.671Z,9.32
2023-02-22T10:48:53.538Z,9.90
2023-02-22T10:51:22.067Z,9.90
2023-02-22T10:54:10.530Z,9.02
2023-02-22T10:56:50.934Z,10.02
2023-02-22T10:59:33.032Z,9.05
2023-02-22T11:02:10.975Z,9.65
2023-02-22T11:04:53.173Z,10.73
2023-02-22T11:07:27.258Z,9.18
2023-02-22T11:09:57.753Z,10.30
2023-02-22T11:12:33.251Z,10.73
2023-02-22T11:15:29.637Z,12.15
2023-02-22T11:18:01.405Z,10.27
2023-02-22T11:20:41.424Z,11.40
2023-02-22T11:23:09.922Z,13.07
2023-02-22T11:25:42.549Z,13.57
2023-02-22T11:28:20.612Z,12.50
2023-02-22T11:30:53.170Z,12.02
2023-02-22T11:33:27.021Z,12.88
2023-02-22T11:35:59.671Z,12.07
2023-02-22T11:38:30.356Z,12.43
2023-02-22T11:41:15.984Z,13.75
2023-02-22T11:43:46.117Z,13.27
2023-02-22T11:46:19.049Z,13.40
2023-02-22T11:48:59.443Z,13.48
2023-02-22T11:51:57.225Z,10.88
2023-02-22T11:55:10.705Z,13.60
2023-02-22T11:57:56.722Z,12.80
2023-02-22T12:00:37.515Z,12.23
2023-02-22T12:03:39.920Z,13.27
2023-02-22T12:06:29.551Z,12.27
2023-02-22T12:09:14.931Z,14.13
2023-02-22T12:11:59.873Z,12.35
2023-02-22T12:14:42.028Z,12.50
2023-02-22T12:17:43.703Z,13.57
2023-02-22T12:20:22.988Z,13.23
2023-02-22T12:23:06.773Z,12.77
2023-02-22T12:25:42.421Z,12.00
2023-02-22T12:28:24.982Z,12.02
2023-02-22T12:31:04.851Z,12.73
2023-02-22T12:33:47.909Z,12.25
2023-02-22T12:36:20.826Z,11.93
2023-02-22T12:38:58.473Z,12.25
2023-02-22T12:41:38.801Z,11.05
2023-02-22T12:44:19.197Z,12.05
2023-02-22T12:46:53.367Z,12.98
2023-02-22T12:49:31.910Z,10.82
2023-02-22T12:52:21.410Z,10.90
2023-02-22T12:55:00.488Z,12.68
2023-02-22T12:57:44.442Z,11.45
2023-02-22T13:00:26.521Z,12.93
2023-02-22T13:03:03.190Z,12.00
2023-02-22T13:05:39.365Z,13.77
2023-02-22T13:08:25.520Z,14.03
2023-02-22T13:11:16.353Z,13.35
2023-02-22T13:14:00.794Z,13.68
2023-02-22T13:16:42.295Z,11.98
2023-02-22T13:19:31.251Z,13.55
2023-02-22T13:22:09.559Z,11.90
2023-02-22T13:24:54.508Z,13.45
2023-02-22T13:27:29.247Z,12.73
2023-02-22T13:30:01.826Z,13.23
2023-02-22T13:32:47.331Z,14.82
2023-02-22T13:35:39.678Z,14.18
2023-02-22T13:38:52.469Z,13.20
2023-02-22T13:41:46.796Z,14.13
2023-02-22T13:44:47.618Z,14.13
2023-02-22T13:47:59.513Z,13.55
2023-02-22T13:50:59.144Z,12.98
2023-02-22T13:53:34.932Z,13.18
2023-02-22T13:56:03.606Z,14.30
2023-02-22T13:58:31.765Z,15.63
2023-02-22T14:01:01.169Z,14.00
2023-02-22T14:03:41.880Z,13.32
2023-02-22T14:06:32.319Z,13.75
2023-02-22T14:09:19.016Z,14.70
2023-02-22T14:11:48.664Z,13.77
2023-02-22T14:14:19.114Z,14.25
2023-02-22T14:17:29.868Z,15.73
2023-02-22T14:20:36.868Z,15.88
2023-02-22T14:23:36.522Z,13.40
2023-02-22T14:26:16.954Z,14.02
2023-02-22T14:28:59.049Z,14.80
2023-02-22T14:31:36.437Z,14.57
2023-02-22T14:34:11.523Z,13.25
2023-02-22T14:36:54.608Z,13.68
2023-02-22T14:39:32.091Z,13.55
2023-02-22T14:42:06.886Z,14.68
2023-02-22T14:44:42.638Z,14.68
2023-02-22T14:47:21.006Z,13.75
2023-02-22T14:49:54.784Z,14.93
2023-02-22T14:52:31.195Z,12.85
2023-02-22T14:55:19.579Z,16.48
2023-02-22T14:58:00.129Z,13.35
2023-02-22T15:00:39.986Z,11.93
2023-02-22T15:03:29.148Z,11.68
2023-02-22T15:06:00.061Z,11.52
2023-02-22T15:08:29.497Z,11.32
2023-02-22T15:10:58.797Z,10.75
2023-02-22T15:13:32.897Z,11.02
2023-02-22T15:16:04.084Z,9.80
2023-02-22T15:18:40.864Z,10.10
2023-02-22T15:21:16.193Z,11.07
2023-02-22T15:23:49.857Z,10.80
2023-02-22T15:26:23.605Z,11.15
2023-02-22T15:28:56.296Z,10.85
2023-02-22T15:31:32.522Z,10.80
2023-02-22T15:34:22.081Z,12.63
2023-02-22T15:36:54.464Z,10.18
2023-02-22T15:39:29.555Z,11.00
2023-02-22T15:42:08.843Z,10.32
2023-02-22T15:44:40.528Z,11.25
2023-02-22T15:47:13.066Z,11.63
2023-02-22T15:49:41.125Z,11.48
2023-02-22T15:52:20.646Z,10.15
2023-02-22T15:54:53.404Z,11.02
2023-02-22T15:57:25.376Z,10.93
2023-02-22T15:59:57.483Z,11.38
2023-02-22T16:02:38.736Z,12.38
2023-02-22T16:05:11.633Z,12.07
2023-02-22T16:07:45.376Z,12.32
2023-02-22T16:10:30.205Z,11.05
2023-02-22T16:13:09.130Z,11.70
2023-02-22T16:15:38.178Z,10.68
2023-02-22T16:18:26.956Z,12.60
2023-02-22T16:21:11.694Z,12.75
2023-02-22T16:23:49.135Z,11.75
2023-02-22T16:26:27.527Z,11.65
2023-02-22T16:28:58.787Z,13.35
2023-02-22T16:31:31.952Z,12.43
2023-02-22T16:34:00.966Z,12.43
2023-02-22T16:36:41.298Z,13.00
2023-02-22T16:39:14.414Z,13.75
2023-02-22T16:41:43.851Z,13.48
2023-02-22T16:44:13.953Z,13.52
2023-02-22T16:46:42.848Z,14.68
2023-02-22T16:49:12.239Z,13.50
2023-02-22T16:51:47.267Z,12.82
2023-02-22T16:54:24.239Z,15.85
2023-02-22T16:56:56.607Z,12.35
2023-02-22T16:59:25.106Z,14.25
2023-02-22T17:01:53.046Z,15.25
2023-02-22T17:04:25.687Z,13.73
2023-02-22T17:06:54.380Z,15.63
2023-02-22T17:09:22.661Z,16.70
2023-02-22T17:11:54.417Z,14.02
2023-02-22T17:14:28.829Z,13.77
2023-02-22T17:16:59.364Z,14.55
2023-02-22T17:19:28.604Z,13.77
2023-02-22T17:21:56.768Z,15.00
2023-02-22T17:24:29.170Z,15.75
2023-02-22T17:26:59.745Z,13.77
2023-02-22T17:29:28.807Z,14.82
2023-02-22T17:31:57.399Z,13.98
2023-02-22T17:34:26.509Z,15.57
2023-02-22T17:36:54.861Z,15.77
2023-02-22T17:39:22.919Z,15.90
2023-02-22T17:41:57.495Z,16.65
2023-02-22T17:44:27.324Z,15.20
2023-02-22T17:46:55.466Z,15.90
2023-02-22T17:49:23.485Z,15.38
2023-02-22T17:51:53.129Z,15.75
2023-02-22T17:54:21.806Z,14.05
2023-02-22T17:56:49.871Z,14.88
2023-02-22T17:59:17.855Z,14.57
2023-02-22T18:01:48.165Z,15.30
2023-02-22T18:04:16.476Z,16.45
2023-02-22T18:06:44.516Z,13.50
2023-02-22T18:09:17.668Z,15.50
2023-02-22T18:11:45.832Z,14.82
2023-02-22T18:14:13.902Z,13.75
2023-02-22T18:16:42.428Z,13.25
2023-02-22T18:19:11.772Z,15.77
2023-02-22T18:21:39.875Z,15.63
2023-02-22T18:24:08.902Z,14.65
2023-02-22T18:26:39.010Z,15.88
2023-02-22T18:29:07.705Z,15.20
2023-02-22T18:31:35.788Z,14.75
2023-02-22T18:34:03.816Z,16.73
2023-02-22T18:36:33.152Z,16.33
2023-02-22T18:39:01.140Z,17.75
2023-02-22T18:41:29.236Z,18.45
2023-02-22T18:44:00.354Z,16.00
2023-02-22T18:46:29.994Z,19.17
2023-02-22T18:48:59.401Z,18.85
2023-02-22T18:51:29.606Z,20.35
2023-02-22T18:54:01.035Z,19.52
2023-02-22T18:56:30.917Z,21.38
2023-02-22T18:59:02.422Z,21.63
2023-02-22T19:01:35.531Z,23.02
2023-02-22T19:04:03.634Z,23.20
2023-02-22T19:06:34.664Z,20.20
2023-02-22T19:09:08.507Z,24.85
2023-02-22T19:11:40.141Z,24.63
2023-02-22T19:14:09.530Z,22.58
2023-02-22T19:16:38.167Z,22.83
2023-02-22T19:19:06.882Z,22.50
2023-02-22T19:21:35.004Z,23.33
2023-02-22T19:24:05.044Z,24.70
2023-02-22T19:26:33.134Z,24.05
2023-02-22T19:29:08.342Z,24.95
2023-02-22T19:31:36.545Z,24.67
2023-02-22T19:34:09.003Z,26.95
2023-02-22T19:36:40.138Z,28.48
2023-02-22T19:39:10.145Z,27.92
2023-02-22T19:41:38.660Z,27.42
2023-02-22T19:44:07.736Z,28.75
2023-02-22T19:46:37.164Z,27.77
2023-02-22T19:49:07.509Z,27.83
2023-02-22T19:51:35.810Z,28.17
2023-02-22T19:54:06.680Z,29.05
2023-02-22T19:56:36.769Z,29.15
2023-02-22T19:59:12.530Z,31.23
2023-02-22T20:01:44.251Z,30.40
2023-02-22T20:04:17.979Z,31.55
2023-02-22T20:06:47.605Z,31.83
2023-02-22T20:09:18.655Z,31.67
2023-02-22T20:11:49.186Z,33.83
2023-02-22T20:14:23.220Z,31.45
2023-02-22T20:16:51.753Z,33.85
2023-02-22T20:19:22.371Z,34.67
2023-02-22T20:21:52.255Z,36.28
2023-02-22T20:24:20.786Z,36.03
2023-02-22T20:26:50.406Z,33.78
2023-02-22T20:29:19.066Z,37.90
2023-02-22T20:31:52.443Z,35.70
2023-02-22T20:34:20.563Z,37.72
2023-02-22T20:36:48.625Z,38.80
2023-02-22T20:39:16.802Z,38.67
2023-02-22T20:41:46.989Z,47.30
2023-02-22T20:44:18.966Z,39.55
2023-02-22T20:46:48.185Z,37.20
2023-02-22T20:49:21.332Z,35.50
2023-02-22T20:51:50.404Z,38.03
2023-02-22T20:54:18.904Z,37.80
2023-02-22T20:56:49.871Z,33.00
2023-02-22T20:59:21.359Z,34.13
2023-02-22T21:01:50.242Z,29.90
2023-02-22T21:04:18.598Z,33.05
2023-02-22T21:06:47.037Z,35.58
2023-02-22T21:09:18.590Z,35.63
2023-02-22T21:11:46.855Z,33.78
2023-02-22T21:14:18.634Z,36.78
2023-02-22T21:16:51.354Z,38.42
2023-02-22T21:19:25.226Z,39.50
2023-02-22T21:21:58.597Z,36.30
2023-02-22T21:24:29.482Z,37.30
2023-02-22T21:26:59.173Z,35.20
2023-02-22T21:29:28.128Z,33.17
2023-02-22T21:31:57.961Z,34.95
2023-02-22T21:34:26.262Z,36.10
2023-02-22T21:36:54.608Z,35.80
2023-02-22T21:39:28.053Z,43.92
2023-02-22T21:42:00.486Z,36.92
2023-02-22T21:44:29.717Z,37.35
2023-02-22T21:46:59.142Z,36.53
2023-02-22T21:49:28.262Z,36.88
2023-02-22T21:51:56.476Z,37.67
2023-02-22T21:54:24.556Z,34.65
2023-02-22T21:56:54.401Z,36.60
2023-02-22T21:59:23.779Z,35.35
2023-02-22T22:01:56.578Z,37.40
2023-02-22T22:04:29.598Z,33.75
2023-02-22T22:07:00.385Z,36.30
2023-02-22T22:09:32.922Z,35.08
2023-02-22T22:12:04.967Z,31.40
2023-02-22T22:14:35.650Z,35.45
2023-02-22T22:17:07.848Z,33.47
2023-02-22T22:19:40.427Z,30.08
2023-02-22T22:22:09.154Z,38.55
2023-02-22T22:24:40.080Z,38.00
2023-02-22T22:27:12.147Z,35.88
2023-02-22T22:29:40.401Z,41.70
2023-02-22T22:32:09.038Z,34.65
2023-02-22T22:34:38.889Z,38.85
2023-02-22T22:37:07.648Z,32.47
2023-02-22T22:39:35.681Z,42.28
2023-02-22T22:42:03.776Z,36.80
2023-02-22T22:44:41.817Z,34.58
2023-02-22T22:47:12.224Z,37.20
2023-02-22T22:49:42.518Z,37.45
2023-02-22T22:52:13.834Z,36.55
2023-02-22T22:54:43.333Z,36.22
2023-02-22T22:57:12.291Z,37.72
2023-02-22T22:59:40.663Z,38.17
2023-02-22T23:02:11.329Z,36.25
2023-02-22T23:04:40.763Z,40.40
2023-02-22T23:07:08.811Z,42.58
2023-02-22T23:09:38.735Z,37.47
2023-02-22T23:12:09.615Z,40.45
2023-02-22T23:14:43.957Z,37.40
2023-02-22T23:17:15.915Z,38.83
2023-02-22T23:19:46.301Z,39.50
2023-02-22T23:22:15.178Z,40.05
2023-02-22T23:24:44.544Z,36.90
2023-02-22T23:27:12.661Z,40.45
2023-02-22T23:29:46.528Z,39.05
2023-02-22T23:32:15.083Z,41.80
2023-02-22T23:34:43.880Z,37.35
2023-02-22T23:37:14.099Z,38.22
2023-02-22T23:39:42.695Z,40.35
2023-02-22T23:42:10.766Z,41.00
2023-02-22T23:44:40.145Z,39.47
2023-02-22T23:47:09.607Z,37.97
2023-02-22T23:49:38.480Z,38.35
2023-02-22T23:52:08.981Z,37.90
2023-02-22T23:54:43.884Z,36.88
2023-02-22T23:57:12.294Z,39.03
2023-02-22T23:59:40.866Z,38.42
